Time;durP1;ratioP1;P1;durP2;ratioP2;P2;SDS_P1;SDS_P2;PMS_P1;PMS_P2;Temp;Humidity;BMP_temperature;BMP_pressure;BME280_temperature;BME280_humidity;BME280_pressure;Samples;Min_cycle;Max_cycle;Signal;HPM_P1;HPM_P2
2021/06/13 00:00:44;;;;;;;15.82;5.22;;;17.50;80.70;;;;;;5049725;28;20025;-79
2021/06/13 00:03:10;;;;;;;17.50;4.85;;;17.50;80.70;;;;;;5067207;28;20056;-80
2021/06/13 00:05:36;;;;;;;11.77;4.75;;;17.50;80.80;;;;;;5051458;28;20025;-79
2021/06/13 00:08:02;;;;;;;19.83;5.57;;;17.50;81.00;;;;;;5066858;28;20096;-79
2021/06/13 00:10:27;;;;;;;11.90;5.00;;;17.60;80.90;;;;;;5049746;28;20033;-79
2021/06/13 00:12:53;;;;;;;15.75;5.10;;;17.60;80.90;;;;;;5051661;28;20025;-80
2021/06/13 00:15:24;;;;;;;13.45;4.57;;;17.50;81.30;;;;;;5051132;28;20112;-80
2021/06/13 00:17:51;;;;;;;13.55;4.70;;;17.40;81.80;;;;;;5051697;28;20039;-79
2021/06/13 00:20:22;;;;;;;17.52;4.82;;;17.30;82.30;;;;;;5050837;28;20541;-79
2021/06/13 00:22:49;;;;;;;15.00;4.97;;;17.30;82.50;;;;;;5050138;28;20021;-79
2021/06/13 00:25:15;;;;;;;14.10;5.05;;;17.30;82.90;;;;;;5051525;28;20025;-80
2021/06/13 00:27:41;;;;;;;12.13;4.93;;;17.30;83.40;;;;;;5051541;28;20029;-80
2021/06/13 00:30:09;;;;;;;18.08;5.25;;;17.30;83.50;;;;;;5051052;28;20485;-80
2021/06/13 00:32:35;;;;;;;13.18;4.40;;;17.30;83.80;;;;;;5051405;28;20132;-80
2021/06/13 00:35:01;;;;;;;13.93;5.00;;;17.20;84.20;;;;;;5050026;28;20024;-79
2021/06/13 00:37:27;;;;;;;17.65;6.22;;;17.20;84.30;;;;;;5051414;28;20125;-79
2021/06/13 00:39:53;;;;;;;14.02;6.43;;;17.10;85.30;;;;;;5049327;28;20033;-80
2021/06/13 00:42:20;;;;;;;16.58;5.15;;;17.10;84.40;;;;;;5050033;28;20071;-79
2021/06/13 00:44:46;;;;;;;17.00;5.70;;;17.10;84.40;;;;;;5049390;28;20025;-79
2021/06/13 00:47:12;;;;;;;17.50;5.68;;;17.20;84.30;;;;;;5051204;28;20033;-80
2021/06/13 00:49:37;;;;;;;16.80;5.78;;;17.10;84.30;;;;;;5050496;28;20029;-80
2021/06/13 00:52:03;;;;;;;16.88;6.32;;;17.20;82.50;;;;;;5051048;28;20056;-80
2021/06/13 00:54:29;;;;;;;19.77;5.93;;;17.20;82.70;;;;;;5050983;28;20099;-80
2021/06/13 00:56:55;;;;;;;15.73;5.63;;;17.30;82.30;;;;;;5049197;28;20116;-79
2021/06/13 00:59:21;;;;;;;21.85;6.47;;;17.30;81.80;;;;;;5048746;28;20489;-80
2021/06/13 01:01:46;;;;;;;19.95;5.28;;;17.20;82.50;;;;;;5050522;28;20066;-79
2021/06/13 01:04:12;;;;;;;20.20;4.80;;;17.20;81.80;;;;;;5051673;28;20100;-80
2021/06/13 01:07:04;;;;;;;15.10;5.38;;;17.10;81.80;;;;;;5054423;28;20036;-79
2021/06/13 01:09:51;;;;;;;16.15;5.43;;;17.10;81.80;;;;;;5055230;28;20021;-80
2021/06/13 01:12:25;;;;;;;12.95;4.28;;;17.20;81.80;;;;;;5054735;28;20029;-80
2021/06/13 01:15:13;;;;;;;12.68;4.40;;;17.10;81.70;;;;;;5054352;28;20065;-79
2021/06/13 01:18:00;;;;;;;15.23;4.93;;;17.10;82.10;;;;;;5054629;28;20492;-80
2021/06/13 01:20:37;;;;;;;13.75;4.78;;;17.00;82.20;;;;;;5054165;28;20029;-80
2021/06/13 01:23:40;;;;;;;14.40;4.65;;;17.00;82.70;;;;;;5054743;28;20036;-79
2021/06/13 01:26:25;;;;;;;14.45;4.65;;;17.10;82.60;;;;;;5052819;28;20477;-79
2021/06/13 01:29:01;;;;;;;13.38;4.40;;;16.90;82.80;;;;;;5054131;28;20040;-80
2021/06/13 01:31:35;;;;;;;16.05;4.88;;;16.80;83.20;;;;;;5053787;28;20043;-79
2021/06/13 01:34:02;;;;;;;13.07;4.43;;;16.80;83.30;;;;;;5069620;28;20033;-79
2021/06/13 01:36:32;;;;;;;18.13;5.18;;;16.80;83.40;;;;;;5052597;28;20174;-79
2021/06/13 01:38:58;;;;;;;20.35;5.10;;;16.70;83.80;;;;;;5053869;28;20029;-80
2021/06/13 01:41:29;;;;;;;12.40;4.55;;;16.70;83.90;;;;;;5054227;28;20029;-80
2021/06/13 01:43:57;;;;;;;15.77;4.63;;;16.80;84.00;;;;;;5052783;28;20025;-80
2021/06/13 01:46:25;;;;;;;12.45;4.68;;;16.80;84.10;;;;;;5052494;28;20020;-79
2021/06/13 01:48:53;;;;;;;12.63;4.63;;;16.70;84.50;;;;;;5054239;28;20025;-79
2021/06/13 01:51:20;;;;;;;13.18;5.03;;;16.60;84.60;;;;;;5053694;28;20466;-79
2021/06/13 01:53:46;;;;;;;19.08;5.65;;;16.60;84.80;;;;;;5052775;28;20452;-80
2021/06/13 01:56:16;;;;;;;13.40;4.68;;;16.70;85.00;;;;;;5053941;28;20049;-80
2021/06/13 01:58:46;;;;;;;14.85;4.88;;;16.60;85.30;;;;;;5054289;28;20029;-80
2021/06/13 02:01:15;;;;;;;16.60;4.53;;;16.60;85.10;;;;;;5051907;28;20362;-80
2021/06/13 02:03:44;;;;;;;15.32;4.93;;;16.60;85.30;;;;;;5054249;28;20025;-79
2021/06/13 02:06:10;;;;;;;13.60;4.13;;;16.60;85.20;;;;;;5052159;28;20032;-79
2021/06/13 02:08:38;;;;;;;12.65;4.70;;;16.50;85.70;;;;;;5054046;28;20033;-79
2021/06/13 02:11:08;;;;;;;15.13;4.95;;;16.50;86.30;;;;;;5053083;28;20127;-79
2021/06/13 02:13:35;;;;;;;14.00;4.75;;;16.50;86.50;;;;;;5052808;28;20037;-79
2021/06/13 02:16:01;;;;;;;13.18;5.05;;;16.60;86.50;;;;;;5050319;28;20033;-80
2021/06/13 02:18:27;;;;;;;13.45;5.55;;;16.50;86.40;;;;;;5050908;28;20347;-80
2021/06/13 02:20:56;;;;;;;11.63;4.75;;;16.40;87.20;;;;;;5066136;28;20032;-79
2021/06/13 02:23:25;;;;;;;18.10;5.22;;;16.50;86.90;;;;;;5051292;28;20441;-79
2021/06/13 02:25:53;;;;;;;11.35;4.78;;;16.50;86.40;;;;;;5051527;28;20052;-80
2021/06/13 02:28:20;;;;;;;13.77;5.18;;;16.40;87.00;;;;;;5052096;28;20020;-80
2021/06/13 02:30:47;;;;;;;14.50;5.18;;;16.30;87.30;;;;;;5051302;28;20459;-79
2021/06/13 02:33:15;;;;;;;16.73;5.35;;;16.40;87.80;;;;;;5050689;28;20029;-79
2021/06/13 02:35:46;;;;;;;14.38;4.63;;;16.30;87.70;;;;;;5052955;28;20025;-79
2021/06/13 02:38:16;;;;;;;11.50;4.93;;;16.20;89.40;;;;;;5051834;28;20029;-80
2021/06/13 02:40:42;;;;;;;10.73;4.90;;;16.00;89.80;;;;;;5051638;28;20021;-79
2021/06/13 02:43:08;;;;;;;13.13;4.95;;;15.70;90.50;;;;;;5068662;28;20021;-79
2021/06/13 02:45:33;;;;;;;12.82;5.00;;;15.60;91.00;;;;;;5051383;28;20454;-80
2021/06/13 02:47:59;;;;;;;12.30;5.07;;;15.60;91.30;;;;;;5053075;28;20393;-79
2021/06/13 02:50:26;;;;;;;12.98;4.70;;;15.50;91.50;;;;;;5052280;28;20029;-79
2021/06/13 02:53:03;;;;;;;15.57;5.13;;;15.40;91.70;;;;;;5051701;28;20033;-79
2021/06/13 02:55:59;;;;;;;15.73;5.60;;;15.30;91.90;;;;;;5052755;28;20040;-79
2021/06/13 02:58:36;;;;;;;14.00;5.75;;;15.30;92.10;;;;;;5051487;28;20029;-80
2021/06/13 03:01:03;;;;;;;13.95;5.55;;;15.20;92.40;;;;;;5050486;28;20021;-80
2021/06/13 03:03:32;;;;;;;13.52;5.00;;;15.20;92.50;;;;;;5052815;28;20508;-79
2021/06/13 03:05:57;;;;;;;;;;;15.20;92.70;;;;;;5051491;28;20029;-80
2021/06/13 03:08:23;;;;;;;14.77;5.53;;;15.10;92.70;;;;;;5052736;28;20358;-80
2021/06/13 03:10:52;;;;;;;13.48;5.60;;;15.10;92.90;;;;;;5051800;28;20035;-79
2021/06/13 03:13:21;;;;;;;18.30;6.05;;;15.00;92.90;;;;;;5051102;28;20047;-81
2021/06/13 03:15:47;;;;;;;;;;;15.00;93.00;;;;;;5052625;28;20021;-79
2021/06/13 03:18:14;;;;;;;12.52;5.80;;;15.00;93.10;;;;;;5052256;28;19980;-79
2021/06/13 03:20:40;;;;;;;14.38;5.63;;;15.00;93.10;;;;;;5051758;28;20047;-79
2021/06/13 03:23:06;;;;;;;16.08;5.30;;;15.00;93.30;;;;;;5052372;28;20033;-80
2021/06/13 03:25:31;;;;;;;10.27;5.03;;;15.00;93.10;;;;;;5050703;28;20017;-79
2021/06/13 03:27:59;;;;;;;12.88;5.40;;;15.20;93.20;;;;;;5051937;28;20404;-79
2021/06/13 03:30:26;;;;;;;13.10;5.70;;;15.10;93.00;;;;;;5066475;28;20021;-80
2021/06/13 03:32:51;;;;;;;16.40;6.47;;;15.20;92.80;;;;;;5052208;28;20048;-79
2021/06/13 03:35:19;;;;;;;15.90;5.70;;;15.10;93.00;;;;;;5067760;28;20025;-79
2021/06/13 03:37:45;;;;;;;12.57;6.32;;;15.10;93.10;;;;;;5050449;28;20037;-80
2021/06/13 03:40:11;;;;;;;16.33;5.70;;;15.00;93.20;;;;;;5050632;28;20472;-79
2021/06/13 03:42:39;;;;;;;15.05;5.93;;;15.00;93.20;;;;;;5052987;28;20024;-79
2021/06/13 03:45:06;;;;;;;14.82;5.70;;;15.00;93.20;;;;;;5052199;28;20099;-80
2021/06/13 03:47:32;;;;;;;16.02;6.30;;;14.90;93.40;;;;;;5052754;28;20025;-79
2021/06/13 03:49:59;;;;;;;15.25;6.45;;;14.90;93.60;;;;;;5052135;28;20109;-79
2021/06/13 03:52:26;;;;;;;18.02;6.40;;;15.00;93.50;;;;;;5052567;28;20112;-80
2021/06/13 03:54:52;;;;;;;13.57;5.90;;;14.90;93.60;;;;;;5067412;28;20025;-80
2021/06/13 03:57:19;;;;;;;12.88;5.60;;;14.90;93.80;;;;;;5067155;28;20131;-80
2021/06/13 03:59:48;;;;;;;15.05;6.47;;;15.00;93.70;;;;;;5051252;28;20506;-79
2021/06/13 04:02:15;;;;;;;14.52;6.03;;;14.90;93.70;;;;;;5050296;28;20021;-80
2021/06/13 04:04:43;;;;;;;16.88;6.63;;;14.90;93.80;;;;;;5067089;28;20033;-79
2021/06/13 04:07:10;;;;;;;20.70;6.57;;;14.90;93.90;;;;;;5051926;28;20031;-79
2021/06/13 04:09:42;;;;;;;14.35;5.95;;;14.90;93.80;;;;;;5051075;28;20501;-80
2021/06/13 04:12:09;;;;;;;11.70;5.15;;;15.00;93.80;;;;;;5052087;28;20017;-80
2021/06/13 04:14:35;;;;;;;15.00;5.65;;;15.00;93.70;;;;;;5050248;28;20035;-80
2021/06/13 04:17:02;;;;;;;24.60;11.10;;;15.00;93.70;;;;;;5050049;28;20048;-79
2021/06/13 04:19:30;;;;;;;13.82;6.45;;;15.10;93.60;;;;;;5051098;28;20431;-79
2021/06/13 04:21:56;;;;;;;14.70;5.93;;;15.10;93.50;;;;;;5051683;28;20066;-80
2021/06/13 04:24:23;;;;;;;13.73;6.40;;;15.10;93.50;;;;;;5050099;28;20534;-80
2021/06/13 04:26:48;;;;;;;14.32;5.78;;;15.20;93.40;;;;;;5051310;28;20028;-80
2021/06/13 04:29:14;;;;;;;14.80;6.05;;;15.30;93.30;;;;;;5050900;28;20547;-80
2021/06/13 04:31:40;;;;;;;15.65;6.22;;;15.30;93.00;;;;;;5050966;28;20025;-79
2021/06/13 04:34:06;;;;;;;13.27;5.70;;;15.30;93.00;;;;;;5050349;28;20478;-79
2021/06/13 04:36:31;;;;;;;14.93;5.85;;;15.40;92.90;;;;;;5051568;28;20351;-79
2021/06/13 04:38:57;;;;;;;15.13;6.38;;;15.40;92.90;;;;;;5051362;28;20095;-79
2021/06/13 04:41:23;;;;;;;16.77;5.88;;;15.40;92.50;;;;;;5053864;28;20351;-79
2021/06/13 04:43:49;;;;;;;14.90;5.97;;;15.50;92.50;;;;;;5055654;28;20029;-79
2021/06/13 04:46:20;;;;;;;17.05;7.10;;;15.60;92.50;;;;;;5055057;28;20048;-79
2021/06/13 04:48:46;;;;;;;12.98;6.22;;;15.60;92.30;;;;;;5054398;28;20089;-80
2021/06/13 04:51:12;;;;;;;15.70;5.85;;;15.50;92.60;;;;;;5053272;28;20427;-79
2021/06/13 04:53:47;;;;;;;17.45;5.88;;;15.50;92.70;;;;;;5054102;28;20526;-79
2021/06/13 04:56:40;;;;;;;14.13;6.65;;;15.60;92.70;;;;;;5055138;28;20028;-79
2021/06/13 04:59:06;;;;;;;13.65;5.88;;;15.60;92.30;;;;;;5054624;28;20033;-80
2021/06/13 05:01:32;;;;;;;13.93;6.22;;;15.60;92.40;;;;;;5054791;28;20024;-79
2021/06/13 05:03:58;;;;;;;15.88;6.57;;;15.60;92.30;;;;;;5070127;28;20060;-79
2021/06/13 05:06:24;;;;;;;21.80;6.03;;;15.70;92.20;;;;;;5054772;28;20057;-80
2021/06/13 05:08:51;;;;;;;15.63;6.20;;;15.70;91.90;;;;;;5069897;28;20033;-80
2021/06/13 05:11:17;;;;;;;14.05;6.38;;;15.90;91.60;;;;;;5054699;28;20100;-80
2021/06/13 05:13:42;;;;;;;13.35;5.75;;;15.80;92.20;;;;;;5055406;28;20111;-79
2021/06/13 05:16:09;;;;;;;14.00;5.43;;;15.90;91.80;;;;;;5053198;28;20033;-79
2021/06/13 05:18:35;;;;;;;12.98;5.65;;;15.90;91.50;;;;;;5055116;28;20033;-79
2021/06/13 05:21:01;;;;;;;13.13;5.35;;;16.00;91.60;;;;;;5052681;28;20026;-80
2021/06/13 05:23:27;;;;;;;16.00;5.88;;;16.00;91.30;;;;;;5054734;28;20032;-79
2021/06/13 05:25:56;;;;;;;17.63;5.82;;;16.00;91.00;;;;;;5054321;28;20025;-79
2021/06/13 05:28:22;;;;;;;17.70;5.80;;;16.00;91.10;;;;;;5054657;28;20032;-80
2021/06/13 05:30:49;;;;;;;14.60;5.32;;;16.10;90.80;;;;;;5054178;28;20029;-81
2021/06/13 05:33:14;;;;;;;13.45;5.40;;;16.10;90.20;;;;;;5054369;28;20115;-79
2021/06/13 05:35:41;;;;;;;12.95;5.53;;;16.20;90.30;;;;;;5054012;28;20519;-80
2021/06/13 05:38:07;;;;;;;15.23;5.68;;;16.30;90.30;;;;;;5056259;28;20058;-81
2021/06/13 05:40:34;;;;;;;18.35;5.60;;;16.20;90.30;;;;;;5056971;28;20017;-80
2021/06/13 05:42:59;;;;;;;16.70;6.35;;;16.20;90.50;;;;;;5056697;28;20044;-81
2021/06/13 05:45:27;;;;;;;17.25;6.20;;;16.30;90.20;;;;;;5087530;28;20474;-80
2021/06/13 05:47:53;;;;;;;15.68;5.85;;;16.30;90.10;;;;;;5056304;28;20021;-81
2021/06/13 05:50:20;;;;;;;19.73;6.43;;;16.30;90.20;;;;;;5087223;28;20029;-81
2021/06/13 05:52:46;;;;;;;17.48;5.40;;;16.30;90.10;;;;;;5055515;28;20421;-80
2021/06/13 05:55:13;;;;;;;13.00;5.15;;;16.40;89.60;;;;;;5053953;28;20025;-80
2021/06/13 05:57:39;;;;;;;16.23;5.80;;;16.30;88.10;;;;;;5054618;28;20068;-80
2021/06/13 06:00:09;;;;;;;10.50;5.05;;;16.40;88.80;;;;;;5051888;28;20021;-80
2021/06/13 06:02:35;;;;;;;16.05;6.03;;;16.40;87.80;;;;;;5054593;28;20335;-79
2021/06/13 06:05:02;;;;;;;14.38;5.22;;;16.40;88.50;;;;;;5086365;28;20386;-79
2021/06/13 06:07:27;;;;;;;14.15;5.43;;;16.40;87.50;;;;;;5086037;28;20029;-79
2021/06/13 06:09:53;;;;;;;11.55;4.65;;;16.50;86.30;;;;;;5085969;28;20486;-79
2021/06/13 06:12:19;;;;;;;15.10;4.68;;;16.50;87.20;;;;;;5054318;28;20029;-82
2021/06/13 06:14:46;;;;;;;13.70;4.68;;;16.50;86.70;;;;;;5054265;28;20025;-83
2021/06/13 06:17:12;;;;;;;11.70;4.60;;;16.60;84.80;;;;;;5059891;28;20489;-82
2021/06/13 06:19:38;;;;;;;12.02;4.57;;;16.60;84.70;;;;;;5060762;28;20377;-84
2021/06/13 06:22:05;;;;;;;9.63;3.83;;;16.50;83.90;;;;;;5052825;28;20031;-83
2021/06/13 06:24:31;;;;;;;10.52;4.50;;;16.60;84.30;;;;;;5054028;28;20025;-83
2021/06/13 06:26:56;;;;;;;9.93;4.05;;;16.60;84.70;;;;;;5054698;28;20448;-82
2021/06/13 06:29:23;;;;;;;11.70;4.30;;;16.70;84.20;;;;;;5053886;28;20025;-83
2021/06/13 06:31:49;;;;;;;13.35;4.65;;;16.60;83.70;;;;;;5052567;28;20111;-82
2021/06/13 06:34:15;;;;;;;17.85;4.05;;;16.70;82.90;;;;;;5053068;28;20063;-82
2021/06/13 06:36:42;;;;;;;14.95;3.97;;;16.80;82.30;;;;;;5052794;28;20116;-83
2021/06/13 06:39:08;;;;;;;9.98;3.63;;;16.60;80.50;;;;;;5062875;28;20033;-82
2021/06/13 06:41:36;;;;;;;10.75;3.88;;;16.70;81.80;;;;;;5053779;28;20386;-83
2021/06/13 06:44:03;;;;;;;13.80;4.00;;;16.70;82.30;;;;;;5052671;28;20454;-82
2021/06/13 06:46:30;;;;;;;9.48;3.63;;;16.70;81.00;;;;;;5052860;28;20430;-82
2021/06/13 06:48:56;;;;;;;9.23;3.40;;;16.80;82.10;;;;;;5053182;28;20017;-82
2021/06/13 06:51:22;;;;;;;12.73;3.53;;;16.80;79.80;;;;;;5052067;28;20531;-82
2021/06/13 06:53:48;;;;;;;8.40;2.92;;;16.70;78.10;;;;;;5052207;28;20029;-82
2021/06/13 06:56:13;;;;;;;8.55;3.08;;;16.80;77.40;;;;;;5053497;28;20486;-82
2021/06/13 06:58:39;;;;;;;11.75;3.38;;;16.80;75.40;;;;;;5051859;28;20477;-82
2021/06/13 07:01:05;;;;;;;8.90;3.55;;;16.80;75.50;;;;;;5051166;28;20077;-82
2021/06/13 07:03:30;;;;;;;6.65;3.03;;;16.80;73.90;;;;;;5051489;28;20340;-82
2021/06/13 07:05:56;;;;;;;9.48;3.60;;;16.90;73.60;;;;;;5054158;28;20027;-82
2021/06/13 07:08:22;;;;;;;9.75;3.47;;;17.00;72.10;;;;;;5053308;28;20641;-82
2021/06/13 07:10:47;;;;;;;9.45;3.40;;;16.90;71.50;;;;;;5051104;28;20144;-82
2021/06/13 07:13:13;;;;;;;6.38;3.08;;;16.80;71.90;;;;;;5053066;28;20059;-82
2021/06/13 07:15:39;;;;;;;6.22;3.38;;;16.90;71.50;;;;;;5050935;28;20025;-82
2021/06/13 07:18:04;;;;;;;11.40;3.97;;;16.90;71.30;;;;;;5051615;28;20032;-82
2021/06/13 07:20:30;;;;;;;9.82;3.20;;;17.00;70.60;;;;;;5050964;28;20057;-82
2021/06/13 07:22:56;;;;;;;9.13;3.40;;;17.00;69.90;;;;;;5053417;28;20139;-84
2021/06/13 07:25:21;;;;;;;9.07;3.75;;;17.00;70.50;;;;;;5050600;28;20020;-81
2021/06/13 07:27:47;;;;;;;8.88;3.65;;;17.00;70.10;;;;;;5052495;28;20047;-80
2021/06/13 07:30:15;;;;;;;9.60;3.42;;;17.10;70.20;;;;;;5050090;28;20086;-80
2021/06/13 07:32:41;;;;;;;10.50;3.40;;;17.10;69.90;;;;;;5050969;28;20105;-81
2021/06/13 07:35:09;;;;;;;7.95;3.70;;;17.10;68.90;;;;;;5052056;28;20382;-80
2021/06/13 07:37:35;;;;;;;8.30;3.53;;;17.10;71.70;;;;;;5051995;28;20025;-80
2021/06/13 07:40:01;;;;;;;8.65;3.40;;;17.20;69.60;;;;;;5050874;28;20108;-81
2021/06/13 07:42:27;;;;;;;10.43;3.97;;;17.20;68.90;;;;;;5052235;28;20021;-80
2021/06/13 07:44:52;;;;;;;11.45;3.50;;;17.20;68.70;;;;;;5050381;28;20090;-81
2021/06/13 07:47:19;;;;;;;8.82;2.83;;;17.10;68.90;;;;;;5051564;28;20029;-81
2021/06/13 07:49:45;;;;;;;8.98;3.50;;;17.20;69.80;;;;;;5051706;28;20028;-80
2021/06/13 07:52:12;;;;;;;8.02;3.78;;;17.20;69.60;;;;;;5052129;28;20496;-79
2021/06/13 07:54:39;;;;;;;7.85;3.47;;;17.30;68.20;;;;;;5052246;28;20028;-79
2021/06/13 07:57:05;;;;;;;7.68;2.97;;;17.30;68.00;;;;;;5052559;28;20025;-79
2021/06/13 07:59:31;;;;;;;7.30;3.10;;;17.30;67.80;;;;;;5050034;28;20032;-80
2021/06/13 08:01:56;;;;;;;12.02;4.18;;;17.40;67.90;;;;;;5052994;28;20529;-79
2021/06/13 08:04:22;;;;;;;10.30;4.03;;;17.40;67.00;;;;;;5052133;28;20021;-79
2021/06/13 08:06:48;;;;;;;10.80;4.40;;;17.30;67.20;;;;;;5052388;28;20100;-80
2021/06/13 08:09:14;;;;;;;7.22;3.75;;;17.30;67.80;;;;;;5051648;28;20025;-79
2021/06/13 08:11:40;;;;;;;13.00;4.30;;;17.40;68.80;;;;;;5051841;28;20025;-79
2021/06/13 08:14:05;;;;;;;7.50;3.83;;;17.30;68.50;;;;;;5050909;28;20539;-79
2021/06/13 08:16:31;;;;;;;9.65;3.90;;;17.40;68.30;;;;;;5052156;28;20017;-80
2021/06/13 08:18:57;;;;;;;9.57;3.75;;;17.40;68.00;;;;;;5051947;28;20025;-79
2021/06/13 08:21:22;;;;;;;8.93;3.55;;;17.50;68.10;;;;;;5050246;28;20032;-79
2021/06/13 08:23:48;;;;;;;10.80;3.90;;;17.50;69.00;;;;;;5052435;28;20048;-79
2021/06/13 08:26:14;;;;;;;8.80;3.60;;;17.50;68.60;;;;;;5051933;28;20474;-80
2021/06/13 08:28:40;;;;;;;7.47;3.20;;;17.60;68.20;;;;;;5052163;28;20048;-80
2021/06/13 08:31:05;;;;;;;9.77;3.33;;;17.50;68.20;;;;;;5049846;28;20021;-79
2021/06/13 08:33:32;;;;;;;8.65;3.45;;;17.60;67.50;;;;;;5052010;28;20036;-79
2021/06/13 08:35:57;;;;;;;8.65;3.50;;;17.60;67.50;;;;;;5050940;28;20521;-81
2021/06/13 08:38:24;;;;;;;8.45;3.33;;;17.70;67.50;;;;;;5051976;28;20036;-79
2021/06/13 08:40:50;;;;;;;8.05;3.25;;;17.70;67.20;;;;;;5049858;28;20031;-80
2021/06/13 08:43:17;;;;;;;9.60;3.33;;;17.80;68.30;;;;;;5052260;28;20032;-80
2021/06/13 08:45:44;;;;;;;9.10;3.75;;;17.80;67.40;;;;;;5050117;28;20021;-79
2021/06/13 08:48:10;;;;;;;9.13;3.80;;;17.70;66.90;;;;;;5050631;28;20390;-80
2021/06/13 08:50:37;;;;;;;9.07;3.65;;;17.70;67.00;;;;;;5049668;28;20457;-80
2021/06/13 08:53:04;;;;;;;8.27;3.80;;;17.70;66.90;;;;;;5050557;28;20086;-79
2021/06/13 08:55:32;;;;;;;10.00;3.70;;;17.70;67.20;;;;;;5051822;28;20079;-79
2021/06/13 08:57:58;;;;;;;12.20;3.83;;;17.70;67.80;;;;;;5052161;28;20037;-79
2021/06/13 09:00:28;;;;;;;9.75;4.40;;;17.70;67.00;;;;;;5051445;28;20040;-79
2021/06/13 09:02:55;;;;;;;7.70;3.58;;;17.70;67.10;;;;;;5051388;28;20402;-82
2021/06/13 09:05:23;;;;;;;9.68;4.20;;;17.70;66.30;;;;;;5050822;28;20029;-81
2021/06/13 09:07:58;;;;;;;12.15;4.15;;;17.70;66.60;;;;;;5052127;28;20029;-80
2021/06/13 09:10:27;;;;;;;8.75;3.80;;;17.70;66.10;;;;;;5051733;28;20025;-80
2021/06/13 09:13:09;;;;;;;12.55;3.85;;;17.70;66.50;;;;;;5053315;28;20024;-79
2021/06/13 09:15:37;;;;;;;8.77;3.53;;;17.70;65.90;;;;;;5054121;28;20116;-80
2021/06/13 09:18:03;;;;;;;9.30;3.55;;;17.70;67.30;;;;;;5056585;28;20025;-79
2021/06/13 09:20:30;;;;;;;10.80;4.13;;;17.80;67.40;;;;;;5055329;28;20025;-80
2021/06/13 09:23:08;;;;;;;8.93;3.65;;;17.80;66.00;;;;;;5056594;28;20017;-79
2021/06/13 09:25:36;;;;;;;11.50;4.22;;;17.80;66.10;;;;;;5055125;28;20040;-79
2021/06/13 09:28:12;;;;;;;9.15;3.90;;;17.80;66.70;;;;;;5056420;28;20033;-79
2021/06/13 09:30:45;;;;;;;7.85;3.65;;;17.90;66.30;;;;;;5055663;28;20098;-80
2021/06/13 09:33:27;;;;;;;6.53;3.30;;;17.80;66.10;;;;;;5053623;28;20583;-80
2021/06/13 09:35:55;;;;;;;11.15;5.70;;;17.90;66.30;;;;;;5056088;23;20532;-84
2021/06/13 09:38:38;;;;;;;10.68;5.05;;;17.90;66.00;;;;;;5032597;28;20535;-83
2021/06/13 09:41:10;;;;;;;9.52;3.83;;;18.00;65.20;;;;;;5033291;28;20099;-83
2021/06/13 09:43:39;;;;;;;6.50;3.05;;;18.00;65.70;;;;;;5033856;28;20029;-84
2021/06/13 09:46:14;;;;;;;9.75;3.17;;;18.10;66.30;;;;;;5031668;28;20143;-85
2021/06/13 09:48:44;;;;;;;6.85;3.40;;;18.10;65.80;;;;;;5033453;28;20381;-85
2021/06/13 09:51:21;;;;;;;8.90;3.55;;;18.20;66.30;;;;;;5032505;28;20099;-86
2021/06/13 09:53:49;;;;;;;8.27;3.65;;;18.20;65.00;;;;;;5031961;28;20056;-82
2021/06/13 09:56:19;;;;;;;7.28;3.20;;;18.20;65.10;;;;;;5033670;28;20040;-84
2021/06/13 09:58:54;;;;;;;12.52;4.93;;;18.20;64.90;;;;;;5031715;28;20124;-84
2021/06/13 10:01:22;;;;;;;9.70;4.47;;;18.30;64.20;;;;;;5032998;28;20047;-83
2021/06/13 10:03:48;;;;;;;8.27;3.75;;;18.20;64.20;;;;;;5033092;28;20063;-84
2021/06/13 10:06:20;;;;;;;14.52;5.03;;;18.30;65.10;;;;;;5031854;28;20037;-87
2021/06/13 10:08:47;;;;;;;9.93;3.90;;;18.30;65.40;;;;;;5032351;28;20120;-87
2021/06/13 10:11:13;;;;;;;6.53;3.40;;;18.40;64.10;;;;;;5032725;28;20071;-84
2021/06/13 10:13:46;;;;;;;9.85;3.50;;;18.50;64.20;;;;;;5031623;28;20126;-84
2021/06/13 10:16:30;;;;;;;10.73;4.63;;;18.50;63.90;;;;;;5031402;28;20104;-88
2021/06/13 10:19:01;;;;;;;12.90;4.55;;;18.50;64.80;;;;;;5030837;28;20029;-87
2021/06/13 10:21:50;;;;;;;7.85;4.03;;;18.50;65.70;;;;;;5032682;28;20017;-85
2021/06/13 10:24:24;;;;;;;10.90;4.43;;;18.50;65.90;;;;;;5032746;28;20408;-84
2021/06/13 10:27:02;;;;;;;11.57;4.20;;;18.40;66.10;;;;;;5031032;28;20021;-85
2021/06/13 10:29:30;;;;;;;18.67;4.30;;;18.50;65.90;;;;;;5030468;28;20037;-88
2021/06/13 10:31:57;;;;;;;16.63;5.97;;;18.50;66.20;;;;;;5032366;28;20056;-85
2021/06/13 10:34:25;;;;;;;17.58;6.32;;;18.50;66.50;;;;;;5030523;28;20026;-87
2021/06/13 10:36:52;;;;;;;11.38;4.80;;;18.50;68.10;;;;;;5029744;28;20021;-86
2021/06/13 10:39:21;;;;;;;9.05;3.97;;;18.50;67.40;;;;;;5031895;28;20021;-88
2021/06/13 10:41:48;;;;;;;7.10;3.45;;;18.50;67.00;;;;;;5030713;28;20021;-87
2021/06/13 10:44:17;;;;;;;13.95;4.30;;;18.60;67.30;;;;;;5030801;28;20025;-86
2021/06/13 10:46:45;;;;;;;8.50;4.03;;;18.60;67.20;;;;;;5030358;28;20033;-88
2021/06/13 10:49:32;;;;;;;12.38;4.28;;;18.60;67.10;;;;;;5031487;28;20032;-85
2021/06/13 10:52:05;;;;;;;13.85;5.40;;;18.70;67.40;;;;;;5032360;28;20026;-86
2021/06/13 10:54:49;;;;;;;17.73;5.57;;;18.80;68.20;;;;;;5030558;28;20022;-85
2021/06/13 10:57:14;;;;;;;18.45;5.88;;;18.80;68.40;;;;;;5031505;28;20075;-85
2021/06/13 10:59:42;;;;;;;25.13;10.10;;;18.80;68.30;;;;;;5029654;28;20033;-86
2021/06/13 11:02:13;;;;;;;18.58;9.05;;;18.90;69.30;;;;;;5031675;28;20026;-86
2021/06/13 11:04:43;;;;;;;18.05;7.65;;;18.80;68.80;;;;;;5030118;28;20040;-87
2021/06/13 11:07:09;;;;;;;15.38;6.13;;;18.90;68.30;;;;;;5030585;28;20029;-86
2021/06/13 11:10:17;;;;;;;14.45;5.40;;;18.90;68.20;;;;;;5029333;28;20038;-87
2021/06/13 11:12:49;;;;;;;12.15;5.05;;;19.00;67.30;;;;;;5031873;28;20053;-87
2021/06/13 11:15:35;;;;;;;15.05;5.85;;;18.90;67.80;;;;;;5029522;28;20063;-87
2021/06/13 11:18:18;;;;;;;18.65;6.93;;;18.90;67.10;;;;;;5016718;28;20510;-87
2021/06/13 11:21:01;;;;;;;12.60;5.18;;;19.00;67.70;;;;;;5030548;28;20026;-87
2021/06/13 11:23:27;;;;;;;11.65;4.63;;;19.00;67.60;;;;;;5030164;28;20132;-87
2021/06/13 11:25:56;;;;;;;16.05;6.00;;;19.10;68.60;;;;;;5029456;28;20496;-86
2021/06/13 11:28:46;;;;;;;10.73;4.80;;;19.20;67.50;;;;;;5031464;28;20407;-90
2021/06/13 11:31:13;;;;;;;20.60;7.50;;;19.20;66.60;;;;;;5028990;28;20072;-84
2021/06/13 11:33:48;;;;;;;12.98;5.20;;;19.20;66.30;;;;;;5031463;28;20026;-84
2021/06/13 11:38:44;;;;;;;14.70;5.53;;;19.20;72.60;;;;;;5031561;28;20550;-88
2021/06/13 11:41:36;;;;;;;14.95;6.15;;;19.20;74.50;;;;;;5031040;28;20026;-91
2021/06/13 11:44:08;;;;;;;16.55;6.72;;;19.10;87.10;;;;;;5031418;28;20390;-88
2021/06/13 11:46:39;;;;;;;14.07;6.35;;;19.10;80.90;;;;;;5031202;28;20025;-88
2021/06/13 11:49:08;;;;;;;20.85;7.40;;;19.00;74.80;;;;;;5029326;28;20068;-87
2021/06/13 11:52:02;;;;;;;16.50;6.72;;;19.00;73.70;;;;;;5029778;28;20045;-88
2021/06/13 11:54:39;;;;;;;16.92;5.32;;;18.90;90.40;;;;;;5031363;28;20032;-90
2021/06/13 11:57:13;;;;;;;17.15;5.55;;;18.80;75.90;;;;;;5031247;28;20041;-89
2021/06/13 11:59:43;;;;;;;16.30;5.82;;;18.90;71.80;;;;;;5030528;28;20433;-90
2021/06/13 12:02:13;;;;;;;15.65;5.82;;;18.80;72.90;;;;;;5032163;28;20462;-89
2021/06/13 12:04:47;;;;;;;16.25;5.40;;;18.70;72.70;;;;;;5030985;28;20041;-90
2021/06/13 12:07:40;;;;;;;17.50;5.93;;;18.80;89.50;;;;;;5030741;28;20505;-89
2021/06/13 12:10:27;;;;;;;14.73;5.25;;;18.60;92.10;;;;;;5026653;28;20095;-90
2021/06/13 12:13:10;;;;;;;16.95;5.75;;;18.70;77.30;;;;;;5030898;28;20030;-89
2021/06/13 12:15:48;;;;;;;10.20;4.72;;;18.80;81.10;;;;;;4997683;28;20029;-89
2021/06/13 12:18:21;;;;;;;15.10;6.00;;;18.80;84.50;;;;;;5030039;28;20025;-89
2021/06/13 12:20:56;;;;;;;20.23;6.38;;;18.90;77.30;;;;;;5030848;28;20104;-90
2021/06/13 12:23:36;;;;;;;14.63;5.53;;;19.10;72.00;;;;;;5031441;28;20028;-89
2021/06/13 12:28:46;;;;;;;18.65;5.72;;;19.20;71.30;;;;;;5033507;28;20505;-89
2021/06/13 12:31:12;;;;;;;12.57;5.20;;;19.30;69.20;;;;;;5034030;28;20037;-89
2021/06/13 12:33:38;;;;;;;17.63;5.60;;;19.40;75.40;;;;;;5034094;28;20056;-89
2021/06/13 12:36:07;;;;;;;12.27;4.78;;;19.30;71.20;;;;;;5036086;28;20124;-89
2021/06/13 12:38:39;;;;;;;;;;;19.40;79.50;;;;;;5031327;28;20057;-89
2021/06/13 12:41:05;;;;;;;10.43;5.43;;;19.30;78.30;;;;;;5029138;28;19971;-90
2021/06/13 12:43:40;;;;;;;12.20;6.13;;;19.30;71.70;;;;;;5029818;28;20029;-89
2021/06/13 12:46:07;;;;;;;10.73;4.78;;;19.40;74.90;;;;;;5029231;28;20021;-89
2021/06/13 12:48:57;;;;;;;13.13;5.07;;;19.50;71.90;;;;;;5029451;28;20043;-89
2021/06/13 12:51:31;;;;;;;11.07;5.20;;;19.60;70.90;;;;;;5029059;28;20366;-89
2021/06/13 12:53:58;;;;;;;9.35;4.47;;;19.70;73.30;;;;;;5029296;28;20482;-89
2021/06/13 12:56:24;;;;;;;11.80;5.03;;;19.70;70.90;;;;;;5030468;28;20493;-89